createdAt,value
2022-09-07T00:00:23.643Z,1018.0
2022-09-07T00:15:23.564Z,1018.0
2022-09-07T00:30:24.450Z,1017.7
2022-09-07T00:45:23.733Z,1017.0
2022-09-07T01:00:23.537Z,1017.0
2022-09-07T01:15:23.612Z,1017.0
2022-09-07T01:30:23.573Z,1017.0
2022-09-07T01:45:23.664Z,1017.0
2022-09-07T02:00:23.680Z,1017.0
2022-09-07T02:15:23.753Z,1017.0
2022-09-07T02:30:23.637Z,1018.0
2022-09-07T02:45:23.719Z,1018.0
2022-09-07T03:00:32.105Z,1018.0
2022-09-07T03:15:23.831Z,1018.0
2022-09-07T03:30:23.959Z,1018.0
2022-09-07T03:45:23.842Z,1018.0
2022-09-07T04:00:29.688Z,1018.0
2022-09-07T04:15:23.989Z,1018.0
2022-09-07T04:30:23.830Z,1018.0
2022-09-07T04:45:23.962Z,1018.0
2022-09-07T05:00:23.876Z,1018.0
2022-09-07T05:15:23.886Z,1018.0
2022-09-07T05:31:19.062Z,1018.0
2022-09-07T05:45:23.952Z,1018.0
2022-09-07T06:00:27.211Z,1018.0
2022-09-07T06:15:24.063Z,1018.0
2022-09-07T06:30:26.182Z,1018.0
2022-09-07T06:45:24.063Z,1018.0
2022-09-07T07:00:30.874Z,1018.0
2022-09-07T07:15:24.143Z,1018.0
2022-09-07T07:30:25.056Z,1018.0
2022-09-07T07:45:54.801Z,1018.0
2022-09-07T08:00:50.733Z,1018.0
2022-09-07T08:15:24.310Z,1018.0
2022-09-07T08:30:24.465Z,1018.0
2022-09-07T08:45:33.476Z,1018.0
2022-09-07T09:00:35.794Z,1018.0
2022-09-07T09:15:23.563Z,1018.0
2022-09-07T09:30:24.400Z,1018.0
2022-09-07T09:45:23.655Z,1018.0
2022-09-07T10:00:29.960Z,1018.0
2022-09-07T10:15:23.806Z,1018.0
2022-09-07T10:30:23.628Z,1018.0
2022-09-07T10:45:23.657Z,1018.0
2022-09-07T11:00:27.501Z,1017.0
2022-09-07T11:15:23.571Z,1017.0
2022-09-07T11:30:24.048Z,1017.0
2022-09-07T11:45:23.530Z,1017.0
2022-09-07T12:00:45.957Z,1016.0
2022-09-07T12:15:23.565Z,1016.0
2022-09-07T12:30:32.241Z,1016.0
2022-09-07T12:45:23.623Z,1016.0
2022-09-07T13:00:25.054Z,1016.0
2022-09-07T13:15:24.333Z,1016.0
2022-09-07T13:30:24.962Z,1016.0
2022-09-07T13:45:23.785Z,1016.0
2022-09-07T14:00:55.517Z,1016.0
2022-09-07T14:15:24.143Z,1015.3
2022-09-07T14:30:23.872Z,1015.0
2022-09-07T14:45:23.946Z,1015.0
2022-09-07T15:01:37.716Z,1015.0
2022-09-07T15:15:23.899Z,1015.0
2022-09-07T15:30:27.518Z,1015.0
2022-09-07T15:45:23.976Z,1015.0
2022-09-07T16:00:29.093Z,1015.0
2022-09-07T16:15:27.032Z,1015.0
2022-09-07T16:30:24.420Z,1015.0
2022-09-07T16:46:04.663Z,1015.0
2022-09-07T17:00:25.201Z,1015.0
2022-09-07T17:15:24.247Z,1015.0
2022-09-07T17:30:24.795Z,1015.0
2022-09-07T17:45:24.303Z,1015.0
2022-09-07T18:00:25.060Z,1015.3
2022-09-07T18:15:33.202Z,1015.0
2022-09-07T18:30:36.174Z,1015.7
2022-09-07T18:45:33.457Z,1016.0
2022-09-07T19:00:34.357Z,1016.0
2022-09-07T19:15:23.350Z,1016.0
2022-09-07T19:30:23.691Z,1016.0
2022-09-07T19:45:23.345Z,1016.0
2022-09-07T20:00:24.778Z,1016.0
2022-09-07T20:15:23.556Z,1016.0
2022-09-07T20:30:23.453Z,1015.0
2022-09-07T20:45:23.433Z,1015.0
2022-09-07T21:00:57.220Z,1015.0
2022-09-07T21:15:23.551Z,1015.0
2022-09-07T21:30:24.326Z,1015.0
2022-09-07T21:45:24.093Z,1015.0
2022-09-07T22:15:23.787Z,1015.0
2022-09-07T22:30:25.181Z,1014.7
2022-09-07T22:45:23.643Z,1014.0
2022-09-07T23:00:31.719Z,1014.5
2022-09-07T23:15:23.792Z,1015.0
2022-09-07T23:30:26.919Z,1014.7
2022-09-07T23:45:23.701Z,1014.0
